ESPA/LLA METAR and TAF weather

Enter ICAO airport designator
Station Type Date Time Source
ESPA METAR 2019/08/21 21:50 UTC NOAA

ESPA 212150Z 27004KT CAVOK 12/08 Q1015


Station Type Date Time Source
ESPA Decoded METAR 2019/08/21 21:50 UTC NOAA

Station name not available
Aug 21, 2019 - 05:50 PM EDT / 2019.08.21 2150 UTC
Wind: from the W (270 degrees) at 5 MPH (4 KT):0
Visibility: greater than 7 mile(s):0
Temperature: 53 F (12 C)
Dew Point: 46 F (8 C)
Relative Humidity: 76%
Pressure (altimeter): 29.97 in. Hg (1015 hPa)
ob: ESPA 212150Z 27004KT CAVOK 12/08 Q1015
cycle: 22

Station Type Date Time Source
ESPA TAF 2019/02/04 06:27 UTC NOAA

TAF TAF ESPA 040820Z 0406/0418 01010KT 2000 SN VV020
TEMPO 0409/0414 1000 +SN DRSN VV009
BECMG 0414/0416 32010KT 5000 -SN VV030
RMK MIL

Example: see airport list